Time;durP1;ratioP1;P1;durP2;ratioP2;P2;SDS_P1;SDS_P2;PMS_P1;PMS_P2;Temp;Humidity;BMP_temperature;BMP_pressure;BME280_temperature;BME280_humidity;BME280_pressure;Samples;Min_cycle;Max_cycle;Signal;HPM_P1;HPM_P2
2021/05/22 00:01:06;;;;;;;11.18;5.57;;;;;;;;;;4957016;29;20054;-82
2021/05/22 00:03:32;;;;;;;9.40;4.10;;;;;;;;;;4957083;29;20046;-84
2021/05/22 00:05:58;;;;;;;8.65;4.20;;;;;;;;;;4971236;28;20046;-84
2021/05/22 00:08:25;;;;;;;11.52;4.50;;;;;;;;;;4971667;28;20547;-82
2021/05/22 00:10:51;;;;;;;6.63;4.18;;;;;;;;;;4956184;29;20026;-83
2021/05/22 00:13:17;;;;;;;6.93;3.50;;;;;;;;;;4956906;29;20039;-82
2021/05/22 00:15:44;;;;;;;10.05;4.10;;;;;;;;;;4957212;29;20115;-82
2021/05/22 00:18:11;;;;;;;9.27;4.07;;;;;;;;;;4957343;29;20031;-82
2021/05/22 00:20:37;;;;;;;6.25;3.35;;;;;;;;;;4971400;28;20046;-82
2021/05/22 00:23:03;;;;;;;7.80;3.65;;;;;;;;;;4971655;28;20469;-83
2021/05/22 00:25:30;;;;;;;8.15;3.88;;;;;;;;;;4956138;29;20106;-83
2021/05/22 00:27:56;;;;;;;6.97;3.78;;;;;;;;;;4957318;29;20031;-82
2021/05/22 00:30:23;;;;;;;8.25;3.97;;;;;;;;;;4956997;29;20499;-82
2021/05/22 00:32:49;;;;;;;9.15;4.20;;;;;;;;;;4956706;29;20451;-82
2021/05/22 00:35:16;;;;;;;8.73;3.65;;;;;;;;;;4956934;29;20354;-82
2021/05/22 00:37:42;;;;;;;7.88;3.05;;;;;;;;;;4956504;29;20031;-82
2021/05/22 00:40:09;;;;;;;5.28;3.20;;;;;;;;;;4956034;29;20591;-82
2021/05/22 00:42:39;;;;;;;8.18;3.55;;;;;;;;;;4972137;28;20023;-83
2021/05/22 00:45:21;;;;;;;7.65;3.63;;;;;;;;;;4971809;28;20031;-83
2021/05/22 00:47:48;;;;;;;6.60;3.72;;;;;;;;;;4971585;28;20484;-82
2021/05/22 00:50:17;;;;;;;6.90;3.72;;;;;;;;;;4971632;28;20034;-82
2021/05/22 00:52:43;;;;;;;8.55;3.72;;;;;;;;;;4972240;28;20027;-83
2021/05/22 00:55:10;;;;;;;6.50;3.55;;;;;;;;;;4971894;28;20117;-82
2021/05/22 00:57:39;;;;;;;8.13;3.50;;;;;;;;;;4956506;29;20380;-81
2021/05/22 01:00:06;;;;;;;8.48;3.70;;;;;;;;;;4970693;28;20039;-82
2021/05/22 01:02:32;;;;;;;6.43;3.58;;;;;;;;;;4972968;28;20034;-82
2021/05/22 01:04:58;;;;;;;6.05;3.35;;;;;;;;;;4958984;29;20067;-82
2021/05/22 01:07:25;;;;;;;6.82;3.33;;;;;;;;;;4956122;29;20051;-83
2021/05/22 01:09:53;;;;;;;6.25;3.25;;;;;;;;;;4971221;28;20035;-82
2021/05/22 01:12:22;;;;;;;6.13;3.15;;;;;;;;;;4970964;28;20487;-82
2021/05/22 01:14:55;;;;;;;6.88;2.78;;;;;;;;;;4956143;29;20031;-82
2021/05/22 01:17:22;;;;;;;5.38;3.10;;;;;;;;;;4970961;28;20028;-82
2021/05/22 01:20:06;;;;;;;5.00;2.85;;;;;;;;;;4959165;29;20040;-82
2021/05/22 01:22:36;;;;;;;5.47;2.83;;;;;;;;;;4973928;28;20023;-83
2021/05/22 01:25:03;;;;;;;12.98;2.95;;;;;;;;;;4959734;29;20031;-82
2021/05/22 01:27:29;;;;;;;6.55;2.58;;;;;;;;;;4959643;29;20031;-83
2021/05/22 01:29:55;;;;;;;7.22;2.88;;;;;;;;;;4974079;28;20046;-83
2021/05/22 01:32:22;;;;;;;6.20;2.80;;;;;;;;;;4974158;28;20085;-83
2021/05/22 01:34:49;;;;;;;7.03;3.22;;;;;;;;;;4974128;28;20113;-82
2021/05/22 01:37:15;;;;;;;4.90;2.80;;;;;;;;;;4973555;28;20571;-82
2021/05/22 01:39:41;;;;;;;4.53;2.67;;;;;;;;;;4959649;29;20062;-82
2021/05/22 01:42:07;;;;;;;4.28;2.50;;;;;;;;;;4959650;29;20062;-84
2021/05/22 01:44:35;;;;;;;9.00;2.72;;;;;;;;;;4959691;29;20106;-83
2021/05/22 01:47:03;;;;;;;7.30;2.92;;;;;;;;;;4959467;29;20019;-83
2021/05/22 01:49:30;;;;;;;7.43;3.08;;;;;;;;;;4959192;29;20475;-82
2021/05/22 01:51:56;;;;;;;5.45;2.60;;;;;;;;;;4959022;29;20555;-82
2021/05/22 01:54:23;;;;;;;5.45;2.78;;;;;;;;;;4958606;29;20071;-82
2021/05/22 01:56:50;;;;;;;8.35;3.13;;;;;;;;;;4959005;29;20063;-82
2021/05/22 01:59:19;;;;;;;5.60;2.75;;;;;;;;;;4973933;28;20031;-82
2021/05/22 02:01:52;;;;;;;5.53;3.10;;;;;;;;;;4973774;28;20035;-82
2021/05/22 02:04:22;;;;;;;7.40;3.30;;;;;;;;;;4959355;29;20030;-82
2021/05/22 02:06:50;;;;;;;6.43;2.83;;;;;;;;;;4973289;28;20047;-82
2021/05/22 02:09:17;;;;;;;5.30;2.60;;;;;;;;;;4973475;28;20411;-82
2021/05/22 02:11:46;;;;;;;5.65;2.75;;;;;;;;;;4972861;28;20055;-82
2021/05/22 02:14:14;;;;;;;5.72;3.05;;;;;;;;;;4974495;28;20109;-85
2021/05/22 02:16:45;;;;;;;7.07;3.50;;;;;;;;;;4974240;28;20027;-82
2021/05/22 02:19:11;;;;;;;7.68;3.42;;;;;;;;;;4972349;28;20528;-82
2021/05/22 02:21:40;;;;;;;8.27;3.00;;;;;;;;;;4958112;29;20027;-82
2021/05/22 02:24:07;;;;;;;4.95;3.10;;;;;;;;;;4973526;28;20034;-82
2021/05/22 02:26:33;;;;;;;6.03;2.90;;;;;;;;;;4958737;29;20039;-82
2021/05/22 02:29:00;;;;;;;6.80;2.97;;;;;;;;;;4972273;28;20019;-82
2021/05/22 02:31:28;;;;;;;17.20;3.25;;;;;;;;;;4958288;29;20031;-82
2021/05/22 02:33:57;;;;;;;6.93;2.92;;;;;;;;;;4958934;29;20085;-82
2021/05/22 02:36:23;;;;;;;7.93;3.42;;;;;;;;;;4973341;28;20035;-83
2021/05/22 02:38:50;;;;;;;9.82;4.22;;;;;;;;;;4958382;29;20387;-83
2021/05/22 02:41:17;;;;;;;13.50;5.60;;;;;;;;;;4958443;29;20138;-83
2021/05/22 02:43:45;;;;;;;15.98;6.70;;;;;;;;;;4958068;29;20477;-83
2021/05/22 02:46:13;;;;;;;12.93;5.15;;;;;;;;;;4972322;28;20027;-83
2021/05/22 02:48:39;;;;;;;11.38;4.88;;;;;;;;;;4973121;28;20019;-83
2021/05/22 02:51:06;;;;;;;14.15;4.60;;;;;;;;;;4958152;29;20023;-83
2021/05/22 02:53:34;;;;;;;10.55;4.53;;;;;;;;;;4958901;29;20380;-82
2021/05/22 02:56:02;;;;;;;10.15;4.22;;;;;;;;;;4972804;28;20013;-83
2021/05/22 02:58:28;;;;;;;11.15;4.40;;;;;;;;;;4958249;29;20106;-82
2021/05/22 03:00:55;;;;;;;9.00;4.30;;;;;;;;;;4972162;28;20067;-83
2021/05/22 03:03:22;;;;;;;11.05;4.57;;;;;;;;;;4958488;29;20115;-82
2021/05/22 03:05:48;;;;;;;14.50;3.33;;;;;;;;;;4972360;28;20432;-82
2021/05/22 03:08:14;;;;;;;6.43;3.08;;;;;;;;;;4972770;28;20071;-83
2021/05/22 03:10:41;;;;;;;6.13;3.40;;;;;;;;;;4972953;28;20043;-82
2021/05/22 03:13:08;;;;;;;6.57;3.35;;;;;;;;;;4958163;29;20066;-82
2021/05/22 03:15:34;;;;;;;9.45;3.22;;;;;;;;;;4972251;28;20038;-84
2021/05/22 03:18:00;;;;;;;5.72;3.35;;;;;;;;;;4972236;28;20034;-82
2021/05/22 03:20:27;;;;;;;9.50;3.13;;;;;;;;;;4972581;28;20039;-82
2021/05/22 03:22:53;;;;;;;7.00;3.75;;;;;;;;;;4958059;29;20445;-82
2021/05/22 03:25:19;;;;;;;11.48;4.07;;;;;;;;;;4957645;29;20030;-83
2021/05/22 03:27:46;;;;;;;7.35;3.25;;;;;;;;;;4972464;28;20031;-83
2021/05/22 03:30:12;;;;;;;7.05;3.35;;;;;;;;;;4957569;29;20069;-83
2021/05/22 03:32:39;;;;;;;5.53;3.10;;;;;;;;;;4959234;29;20027;-82
2021/05/22 03:35:05;;;;;;;5.63;2.90;;;;;;;;;;4959675;29;20484;-83
2021/05/22 03:37:32;;;;;;;5.93;3.17;;;;;;;;;;4972533;28;20106;-82
2021/05/22 03:39:58;;;;;;;6.85;2.97;;;;;;;;;;4956729;28;20098;-82
2021/05/22 03:42:24;;;;;;;7.43;2.75;;;;;;;;;;4956978;29;20027;-82
2021/05/22 03:44:51;;;;;;;5.43;2.95;;;;;;;;;;4957639;29;20063;-82
2021/05/22 03:47:17;;;;;;;4.90;2.85;;;;;;;;;;4971408;28;20035;-83
2021/05/22 03:49:43;;;;;;;5.13;3.10;;;;;;;;;;4972116;28;20023;-82
2021/05/22 03:52:11;;;;;;;6.55;2.75;;;;;;;;;;4957479;29;20118;-82
2021/05/22 03:54:37;;;;;;;6.03;2.95;;;;;;;;;;4957011;29;20027;-82
2021/05/22 03:57:04;;;;;;;10.63;2.83;;;;;;;;;;4971934;28;20035;-82
2021/05/22 03:59:30;;;;;;;7.55;3.53;;;;;;;;;;4956854;29;20039;-83
2021/05/22 04:01:57;;;;;;;5.25;3.00;;;;;;;;;;4971140;28;20039;-83
2021/05/22 04:04:23;;;;;;;8.00;3.13;;;;;;;;;;4971699;28;20023;-82
2021/05/22 04:06:49;;;;;;;4.15;2.38;;;;;;;;;;4956652;29;20059;-82
2021/05/22 04:09:16;;;;;;;11.48;3.58;;;;;;;;;;4956888;29;20023;-82
2021/05/22 04:11:42;;;;;;;5.75;3.03;;;;;;;;;;4957360;29;20017;-81
2021/05/22 04:14:08;;;;;;;5.07;2.25;;;;;;;;;;4957452;29;20019;-82
2021/05/22 04:16:35;;;;;;;3.20;1.70;;;;;;;;;;4956296;29;20032;-82
2021/05/22 04:19:02;;;;;;;4.53;2.30;;;;;;;;;;4958089;29;20038;-82
2021/05/22 04:21:29;;;;;;;4.85;1.92;;;;;;;;;;4956931;29;20062;-82
2021/05/22 04:23:56;;;;;;;3.83;1.40;;;;;;;;;;4956854;29;20106;-83
2021/05/22 04:26:22;;;;;;;4.45;1.80;;;;;;;;;;4957698;29;20035;-82
2021/05/22 04:28:48;;;;;;;2.90;1.50;;;;;;;;;;4971876;28;20040;-83
2021/05/22 04:31:15;;;;;;;14.68;5.80;;;;;;;;;;4959421;28;20408;-82
2021/05/22 04:33:41;;;;;;;8.55;3.97;;;;;;;;;;4962792;28;20023;-82
2021/05/22 04:36:07;;;;;;;6.90;2.92;;;;;;;;;;4979072;28;20023;-82
2021/05/22 04:38:33;;;;;;;7.50;2.80;;;;;;;;;;4989647;28;20542;-83
2021/05/22 04:41:00;;;;;;;9.43;2.60;;;;;;;;;;4990641;28;20046;-83
2021/05/22 04:43:26;;;;;;;4.75;1.85;;;;;;;;;;4990735;28;20074;-83
2021/05/22 04:45:52;;;;;;;3.03;1.65;;;;;;;;;;4989978;28;20031;-81
2021/05/22 04:48:18;;;;;;;3.88;1.98;;;;;;;;;;4990424;28;20463;-82
2021/05/22 04:50:44;;;;;;;4.07;1.95;;;;;;;;;;4975351;28;20027;-83
2021/05/22 04:53:11;;;;;;;5.93;2.20;;;;;;;;;;4977997;28;20387;-83
2021/05/22 04:55:37;;;;;;;4.25;1.70;;;;;;;;;;4994141;28;20173;-84
2021/05/22 04:58:03;;;;;;;4.55;1.92;;;;;;;;;;4994340;28;20023;-82
2021/05/22 05:00:47;;;;;;;4.65;1.60;;;;;;;;;;4978168;28;20038;-80
2021/05/22 05:03:13;;;;;;;3.22;1.63;;;;;;;;;;4993949;28;20172;-83
2021/05/22 05:05:39;;;;;;;4.47;1.90;;;;;;;;;;4993170;28;20023;-82
2021/05/22 05:08:09;;;;;;;8.00;2.25;;;;;;;;;;4994006;28;20125;-87
2021/05/22 05:10:35;;;;;;;3.03;1.73;;;;;;;;;;4979232;28;20395;-81
2021/05/22 05:13:01;;;;;;;4.95;2.17;;;;;;;;;;4994049;28;20038;-81
2021/05/22 05:15:28;;;;;;;4.55;2.20;;;;;;;;;;4979343;28;20033;-82
2021/05/22 05:17:54;;;;;;;5.00;2.65;;;;;;;;;;4994192;28;20062;-82
2021/05/22 05:20:20;;;;;;;4.03;1.88;;;;;;;;;;4993180;28;20058;-85
2021/05/22 05:22:50;;;;;;;3.45;1.80;;;;;;;;;;4966636;28;20070;-80
2021/05/22 05:25:16;;;;;;;3.78;2.08;;;;;;;;;;4983152;28;20650;-82
2021/05/22 05:27:42;;;;;;;4.80;1.92;;;;;;;;;;4983751;28;20026;-83
2021/05/22 05:30:09;;;;;;;3.35;2.00;;;;;;;;;;4983449;28;20030;-83
2021/05/22 05:32:35;;;;;;;6.75;2.10;;;;;;;;;;4986386;28;20023;-79
2021/05/22 05:35:01;;;;;;;3.85;2.10;;;;;;;;;;4977873;28;20098;-85
2021/05/22 05:37:27;;;;;;;5.40;2.10;;;;;;;;;;4982919;28;20117;-82
2021/05/22 05:39:54;;;;;;;4.28;2.20;;;;;;;;;;4983688;28;20035;-80
2021/05/22 05:42:21;;;;;;;4.82;2.28;;;;;;;;;;4968595;28;20023;-80
2021/05/22 05:44:47;;;;;;;3.33;1.90;;;;;;;;;;4982129;28;20070;-78
2021/05/22 05:47:13;;;;;;;7.07;1.92;;;;;;;;;;4972048;28;20027;-87
2021/05/22 05:49:39;;;;;;;3.90;2.30;;;;;;;;;;4983030;28;20043;-80
2021/05/22 05:52:06;;;;;;;4.03;2.00;;;;;;;;;;4968717;28;20057;-80
2021/05/22 05:54:32;;;;;;;3.90;2.05;;;;;;;;;;4967638;28;20023;-81
2021/05/22 05:56:58;;;;;;;3.95;2.40;;;;;;;;;;4968828;28;20447;-81
2021/05/22 05:59:24;;;;;;;5.03;2.42;;;;;;;;;;4975227;28;20050;-82
2021/05/22 06:01:50;;;;;;;5.32;2.13;;;;;;;;;;4970325;28;20089;-80
2021/05/22 06:04:16;;;;;;;6.05;2.45;;;;;;;;;;4965026;28;20550;-81
2021/05/22 06:06:42;;;;;;;4.13;2.08;;;;;;;;;;4965626;28;20077;-82
2021/05/22 06:09:09;;;;;;;5.95;2.58;;;;;;;;;;4967977;28;20038;-86
2021/05/22 06:11:36;;;;;;;6.32;2.22;;;;;;;;;;4982602;28;20244;-82
2021/05/22 06:14:04;;;;;;;7.00;2.30;;;;;;;;;;4967494;28;20108;-81
2021/05/22 06:16:34;;;;;;;5.72;2.30;;;;;;;;;;4975075;28;20035;-81
2021/05/22 06:19:00;;;;;;;4.60;2.55;;;;;;;;;;4972858;28;20037;-81
2021/05/22 06:21:27;;;;;;;3.85;2.20;;;;;;;;;;4958453;29;20043;-79
2021/05/22 06:23:53;;;;;;;4.07;2.60;;;;;;;;;;4958483;29;20043;-80
2021/05/22 06:26:19;;;;;;;4.18;2.50;;;;;;;;;;4973104;28;20030;-80
2021/05/22 06:28:45;;;;;;;4.20;2.47;;;;;;;;;;4957717;29;20098;-81
2021/05/22 06:31:12;;;;;;;3.35;2.00;;;;;;;;;;4957735;28;20046;-81
2021/05/22 06:33:38;;;;;;;3.20;1.17;;;;;;;;;;4973117;28;20024;-80
2021/05/22 06:36:04;;;;;;;1.77;0.88;;;;;;;;;;4957414;29;20163;-81
2021/05/22 06:38:31;;;;;;;1.95;0.90;;;;;;;;;;4959075;29;20376;-80
2021/05/22 06:40:57;;;;;;;5.40;1.00;;;;;;;;;;4958523;29;20035;-80
2021/05/22 06:43:24;;;;;;;2.03;0.88;;;;;;;;;;4957614;29;20034;-80
2021/05/22 06:46:02;;;;;;;1.20;0.70;;;;;;;;;;4957603;29;20038;-79
2021/05/22 06:48:28;;;;;;;3.47;1.23;;;;;;;;;;4957661;29;20059;-77
2021/05/22 06:50:55;;;;;;;2.97;1.00;;;;;;;;;;4972409;28;20484;-79
2021/05/22 06:53:21;;;;;;;1.42;0.80;;;;;;;;;;4957530;29;20026;-80
2021/05/22 06:55:48;;;;;;;2.65;1.00;;;;;;;;;;4972427;28;20123;-79
2021/05/22 06:58:14;;;;;;;1.90;0.93;;;;;;;;;;4979895;28;20094;-78
2021/05/22 07:00:40;;;;;;;2.78;0.90;;;;;;;;;;4968426;28;20039;-78
2021/05/22 07:03:06;;;;;;;3.28;0.98;;;;;;;;;;4991425;28;20048;-81
2021/05/22 07:05:32;;;;;;;1.73;0.77;;;;;;;;;;4991907;28;20155;-80
2021/05/22 07:08:00;;;;;;;2.13;0.93;;;;;;;;;;4990556;28;20046;-79
2021/05/22 07:10:26;;;;;;;2.30;0.80;;;;;;;;;;4991188;28;20446;-78
2021/05/22 07:12:52;;;;;;;1.58;0.90;;;;;;;;;;4987741;28;20143;-79
2021/05/22 07:15:18;;;;;;;0.73;0.43;;;;;;;;;;4988191;28;20046;-79
2021/05/22 07:17:46;;;;;;;1.10;0.60;;;;;;;;;;4976306;28;20019;-79
2021/05/22 07:20:13;;;;;;;1.40;0.70;;;;;;;;;;4975698;28;20389;-78
2021/05/22 07:22:39;;;;;;;0.98;0.50;;;;;;;;;;4990660;28;20037;-78
2021/05/22 07:25:06;;;;;;;0.80;0.40;;;;;;;;;;4990380;28;20030;-78
2021/05/22 07:27:36;;;;;;;1.55;0.63;;;;;;;;;;4977634;28;20468;-80
2021/05/22 07:30:06;;;;;;;2.05;1.20;;;;;;;;;;4976619;28;20030;-79
2021/05/22 07:32:32;;;;;;;0.98;0.47;;;;;;;;;;4991998;28;20034;-81
2021/05/22 07:34:59;;;;;;;1.20;0.60;;;;;;;;;;4992218;28;20023;-80
2021/05/22 07:37:25;;;;;;;3.10;0.70;;;;;;;;;;4991280;28;20089;-80
2021/05/22 07:39:53;;;;;;;2.45;0.60;;;;;;;;;;4990861;28;20094;-80
2021/05/22 07:42:20;;;;;;;2.10;0.63;;;;;;;;;;4990614;28;20049;-81
2021/05/22 07:44:46;;;;;;;1.23;0.50;;;;;;;;;;4991384;28;20043;-80
2021/05/22 07:47:12;;;;;;;0.73;0.43;;;;;;;;;;4990954;28;20496;-82
2021/05/22 07:49:38;;;;;;;1.10;0.40;;;;;;;;;;4991048;28;20113;-80
2021/05/22 07:52:10;;;;;;;3.33;1.15;;;;;;;;;;4975734;28;20106;-78
2021/05/22 07:54:39;;;;;;;3.28;0.40;;;;;;;;;;4991114;28;20212;-78
2021/05/22 07:57:06;;;;;;;0.68;0.30;;;;;;;;;;4976892;28;20031;-82
2021/05/22 07:59:32;;;;;;;0.50;0.20;;;;;;;;;;4990026;28;20476;-80
2021/05/22 08:01:59;;;;;;;1.60;0.38;;;;;;;;;;4990963;28;20155;-80
2021/05/22 08:04:26;;;;;;;2.35;0.40;;;;;;;;;;4976087;28;20085;-80
2021/05/22 08:06:52;;;;;;;0.65;0.30;;;;;;;;;;4975841;28;20047;-81
2021/05/22 08:09:19;;;;;;;2.80;0.50;;;;;;;;;;4975966;28;20023;-80
2021/05/22 08:11:45;;;;;;;2.03;0.60;;;;;;;;;;4976690;28;20106;-80
2021/05/22 08:14:11;;;;;;;0.98;0.40;;;;;;;;;;4975918;28;20027;-80
2021/05/22 08:16:38;;;;;;;2.10;0.25;;;;;;;;;;4976576;28;20035;-81
2021/05/22 08:19:08;;;;;;;0.73;0.35;;;;;;;;;;4976215;28;20102;-81
2021/05/22 08:21:35;;;;;;;0.50;0.30;;;;;;;;;;4976438;28;20041;-81
2021/05/22 08:24:01;;;;;;;0.98;0.40;;;;;;;;;;4990809;28;20388;-81
2021/05/22 08:26:27;;;;;;;0.52;0.30;;;;;;;;;;4977154;28;20027;-80
2021/05/22 08:28:54;;;;;;;1.05;0.30;;;;;;;;;;4980715;28;20030;-81
2021/05/22 08:31:21;;;;;;;0.50;0.20;;;;;;;;;;4979429;28;20063;-80
2021/05/22 08:33:48;;;;;;;0.80;0.38;;;;;;;;;;4980336;28;20030;-81
2021/05/22 08:36:14;;;;;;;0.85;0.30;;;;;;;;;;4979717;28;20027;-81
2021/05/22 08:38:41;;;;;;;1.48;0.40;;;;;;;;;;4979769;28;20031;-80
2021/05/22 08:41:08;;;;;;;0.50;0.20;;;;;;;;;;4979512;28;20085;-81
2021/05/22 08:43:35;;;;;;;1.27;0.30;;;;;;;;;;4994234;28;20118;-80
2021/05/22 08:46:01;;;;;;;0.45;0.20;;;;;;;;;;4978938;28;20035;-80
2021/05/22 08:48:28;;;;;;;1.40;0.50;;;;;;;;;;4979416;28;20110;-80
2021/05/22 08:50:54;;;;;;;0.45;0.20;;;;;;;;;;4979098;28;20044;-81
2021/05/22 08:53:22;;;;;;;2.22;0.82;;;;;;;;;;4994008;28;20023;-80
2021/05/22 08:55:48;;;;;;;1.48;0.43;;;;;;;;;;4979378;28;20038;-81
2021/05/22 08:58:15;;;;;;;1.85;0.57;;;;;;;;;;4979029;28;20037;-80
2021/05/22 09:00:42;;;;;;;2.03;0.63;;;;;;;;;;4978834;28;20045;-80
2021/05/22 09:03:10;;;;;;;2.08;0.90;;;;;;;;;;4979450;28;20015;-81
2021/05/22 09:05:36;;;;;;;1.85;0.80;;;;;;;;;;4979501;28;20424;-81
2021/05/22 09:08:05;;;;;;;1.17;0.50;;;;;;;;;;4978831;28;20049;-81
2021/05/22 09:10:51;;;;;;;3.10;0.60;;;;;;;;;;4978872;28;20098;-80
2021/05/22 09:13:22;;;;;;;1.10;0.50;;;;;;;;;;4993704;28;20030;-80
2021/05/22 09:15:51;;;;;;;0.95;0.43;;;;;;;;;;4993765;28;20027;-80
2021/05/22 09:18:18;;;;;;;0.98;0.40;;;;;;;;;;4978777;28;20023;-79
2021/05/22 09:20:49;;;;;;;0.40;0.20;;;;;;;;;;4993634;28;20043;-79
2021/05/22 09:23:19;;;;;;;0.80;0.30;;;;;;;;;;4993011;28;20023;-79
2021/05/22 09:25:47;;;;;;;1.42;0.40;;;;;;;;;;4993119;28;20081;-80
2021/05/22 09:28:15;;;;;;;1.30;0.30;;;;;;;;;;4978491;28;20027;-80
2021/05/22 09:30:42;;;;;;;0.82;0.32;;;;;;;;;;4978566;28;20018;-80
2021/05/22 09:33:13;;;;;;;1.05;0.40;;;;;;;;;;4978768;28;20110;-79
2021/05/22 09:35:39;;;;;;;1.33;0.40;;;;;;;;;;4978425;28;20026;-79
2021/05/22 09:38:06;;;;;;;1.45;0.50;;;;;;;;;;4977290;28;20530;-80
2021/05/22 09:40:33;;;;;;;1.13;0.63;;;;;;;;;;4977439;28;20042;-81
2021/05/22 09:43:01;;;;;;;1.08;0.50;;;;;;;;;;4993015;28;20029;-79
2021/05/22 09:45:31;;;;;;;2.00;0.50;;;;;;;;;;4978276;28;20041;-82
2021/05/22 09:48:18;;;;;;;0.70;0.38;;;;;;;;;;4979136;28;20031;-79
2021/05/22 09:50:45;;;;;;;1.42;0.55;;;;;;;;;;4992995;28;20097;-80
2021/05/22 09:53:24;;;;;;;1.58;0.52;;;;;;;;;;4978071;28;20033;-80
2021/05/22 09:56:11;;;;;;;1.70;0.52;;;;;;;;;;4992682;28;20035;-79
2021/05/22 09:58:57;;;;;;;1.98;0.75;;;;;;;;;;4992930;28;20093;-78
2021/05/22 10:01:30;;;;;;;1.98;0.68;;;;;;;;;;4992849;28;20046;-79
2021/05/22 10:04:15;;;;;;;1.13;0.40;;;;;;;;;;4992818;28;20412;-80
2021/05/22 10:06:41;;;;;;;3.17;0.60;;;;;;;;;;4992646;28;20426;-80
2021/05/22 10:09:12;;;;;;;2.40;0.70;;;;;;;;;;4977550;28;20113;-79
2021/05/22 10:11:57;;;;;;;1.55;0.65;;;;;;;;;;4992718;28;20034;-79
2021/05/22 10:14:23;;;;;;;1.50;0.50;;;;;;;;;;4992756;28;20034;-79
2021/05/22 10:16:50;;;;;;;1.00;0.40;;;;;;;;;;4977532;28;20024;-80
2021/05/22 10:19:16;;;;;;;3.90;0.70;;;;;;;;;;4977775;28;20038;-78
2021/05/22 10:21:43;;;;;;;2.55;0.70;;;;;;;;;;4991948;28;20041;-79
2021/05/22 10:24:10;;;;;;;2.63;1.20;;;;;;;;;;4977950;28;20023;-79
2021/05/22 10:26:37;;;;;;;4.50;1.08;;;;;;;;;;4977901;28;20034;-79
2021/05/22 10:29:05;;;;;;;2.28;0.82;;;;;;;;;;4992289;28;20027;-79
2021/05/22 10:31:38;;;;;;;3.38;0.60;;;;;;;;;;4977306;28;20471;-80
2021/05/22 10:34:11;;;;;;;1.30;0.50;;;;;;;;;;4977214;28;20042;-80
2021/05/22 10:36:43;;;;;;;1.65;0.70;;;;;;;;;;4992235;28;20118;-80
2021/05/22 10:39:29;;;;;;;2.72;0.70;;;;;;;;;;4992107;28;20068;-80
2021/05/22 10:41:56;;;;;;;2.60;0.50;;;;;;;;;;4977544;28;20043;-81
2021/05/22 10:44:35;;;;;;;1.42;0.40;;;;;;;;;;4991754;28;20027;-79
2021/05/22 10:47:10;;;;;;;1.00;0.30;;;;;;;;;;4991633;28;20427;-79
2021/05/22 10:49:55;;;;;;;0.85;0.30;;;;;;;;;;4991568;28;20026;-79
2021/05/22 10:52:24;;;;;;;0.90;0.30;;;;;;;;;;4991824;28;20034;-78
2021/05/22 10:55:07;;;;;;;7.97;0.40;;;;;;;;;;4992590;28;20039;-78
2021/05/22 10:57:42;;;;;;;1.23;0.43;;;;;;;;;;4992117;28;20118;-79
2021/05/22 11:00:20;;;;;;;1.45;0.47;;;;;;;;;;4991159;28;20125;-78
2021/05/22 11:02:54;;;;;;;0.95;0.35;;;;;;;;;;4991340;28;20026;-81
2021/05/22 11:05:31;;;;;;;1.27;0.38;;;;;;;;;;4977136;28;20073;-78
2021/05/22 11:08:04;;;;;;;4.13;0.30;;;;;;;;;;4991229;28;20407;-82
2021/05/22 11:10:48;;;;;;;2.40;0.60;;;;;;;;;;4991519;28;20039;-81
2021/05/22 11:13:23;;;;;;;1.83;0.60;;;;;;;;;;4991496;28;20407;-81
2021/05/22 11:15:56;;;;;;;5.10;0.60;;;;;;;;;;4991806;28;20027;-81
2021/05/22 11:18:23;;;;;;;0.73;0.30;;;;;;;;;;4991323;28;20027;-80
2021/05/22 11:21:21;;;;;;;1.02;0.32;;;;;;;;;;4976231;28;20038;-81
2021/05/22 11:24:04;;;;;;;1.23;0.30;;;;;;;;;;4964893;28;20042;-81
2021/05/22 11:26:48;;;;;;;1.02;0.40;;;;;;;;;;4991277;28;20030;-80
2021/05/22 11:29:15;;;;;;;1.52;0.35;;;;;;;;;;4991294;28;20117;-81
2021/05/22 11:31:41;;;;;;;1.30;0.40;;;;;;;;;;4976264;28;20031;-79
2021/05/22 11:34:26;;;;;;;0.70;0.25;;;;;;;;;;4976171;28;20038;-79
2021/05/22 11:37:08;;;;;;;1.10;0.30;;;;;;;;;;4991130;28;20035;-80
2021/05/22 11:39:41;;;;;;;1.35;0.30;;;;;;;;;;4990929;28;20168;-78
2021/05/22 11:42:26;;;;;;;0.45;0.20;;;;;;;;;;4991144;28;20041;-81
2021/05/22 11:44:56;;;;;;;2.45;0.25;;;;;;;;;;4991137;28;20027;-81
2021/05/22 11:47:23;;;;;;;1.63;0.30;;;;;;;;;;4991145;28;20027;-81
2021/05/22 11:49:49;;;;;;;0.98;0.20;;;;;;;;;;4976525;28;20154;-79
2021/05/22 11:52:28;;;;;;;1.23;0.30;;;;;;;;;;4990964;28;20576;-79
2021/05/22 11:54:55;;;;;;;0.82;0.20;;;;;;;;;;4991033;28;20031;-81
2021/05/22 11:57:21;;;;;;;6.20;1.23;;;;;;;;;;4975815;28;20033;-81
2021/05/22 11:59:47;;;;;;;3.17;0.50;;;;;;;;;;4976364;28;20035;-81
2021/05/22 12:02:14;;;;;;;0.95;0.50;;;;;;;;;;4975559;28;20507;-79
2021/05/22 12:04:50;;;;;;;0.77;0.28;;;;;;;;;;4976328;28;20376;-80
2021/05/22 12:07:16;;;;;;;1.13;0.35;;;;;;;;;;4990464;28;20059;-80
2021/05/22 12:09:43;;;;;;;1.02;0.32;;;;;;;;;;4976077;28;20027;-79
2021/05/22 12:12:11;;;;;;;0.77;0.20;;;;;;;;;;4976020;28;20070;-80
2021/05/22 12:14:45;;;;;;;0.55;0.20;;;;;;;;;;4975145;28;20085;-80
2021/05/22 12:17:13;;;;;;;1.38;0.30;;;;;;;;;;4990663;28;20034;-79
2021/05/22 12:19:40;;;;;;;0.60;0.22;;;;;;;;;;4990803;28;20030;-80
2021/05/22 12:22:07;;;;;;;3.17;0.57;;;;;;;;;;4976116;28;20383;-80
2021/05/22 12:24:34;;;;;;;0.93;0.30;;;;;;;;;;4990765;28;20026;-80
2021/05/22 12:27:01;;;;;;;4.63;0.28;;;;;;;;;;4975800;28;20077;-80
2021/05/22 12:29:29;;;;;;;1.33;0.30;;;;;;;;;;4990522;28;20031;-80
2021/05/22 12:32:00;;;;;;;0.80;0.30;;;;;;;;;;4975072;28;20046;-80
2021/05/22 12:34:28;;;;;;;1.38;0.30;;;;;;;;;;4990839;28;20098;-80
2021/05/22 12:37:00;;;;;;;1.02;0.28;;;;;;;;;;4990666;28;20018;-79
2021/05/22 12:39:36;;;;;;;2.20;0.20;;;;;;;;;;4990401;28;20085;-79
2021/05/22 12:42:15;;;;;;;1.42;0.38;;;;;;;;;;4990438;28;20031;-79
2021/05/22 12:44:42;;;;;;;2.58;0.22;;;;;;;;;;4976355;28;20383;-79
2021/05/22 12:47:08;;;;;;;3.75;0.32;;;;;;;;;;4975536;28;20081;-79
2021/05/22 12:49:35;;;;;;;2.50;0.30;;;;;;;;;;4975211;28;20080;-79
2021/05/22 12:52:10;;;;;;;1.38;0.30;;;;;;;;;;4989982;28;20030;-81
2021/05/22 12:54:36;;;;;;;1.83;0.30;;;;;;;;;;4989848;28;20081;-80
2021/05/22 12:57:09;;;;;;;2.88;0.30;;;;;;;;;;4991065;28;20023;-79
2021/05/22 12:59:36;;;;;;;3.95;0.40;;;;;;;;;;4975434;28;20023;-80
2021/05/22 13:02:12;;;;;;;4.45;0.80;;;;;;;;;;4990336;28;20066;-79
2021/05/22 13:04:38;;;;;;;4.78;0.30;;;;;;;;;;4989961;28;20392;-78
2021/05/22 13:07:04;;;;;;;2.25;0.40;;;;;;;;;;4974788;28;20043;-79
2021/05/22 13:09:30;;;;;;;1.17;0.38;;;;;;;;;;4974853;28;20439;-78
2021/05/22 13:11:57;;;;;;;3.05;0.57;;;;;;;;;;4989482;28;20086;-77
2021/05/22 13:14:23;;;;;;;2.85;0.73;;;;;;;;;;4977883;28;20034;-79
2021/05/22 13:16:56;;;;;;;2.63;0.63;;;;;;;;;;4993392;28;20460;-79
2021/05/22 13:19:41;;;;;;;1.13;0.32;;;;;;;;;;4978454;28;20046;-76
2021/05/22 13:22:23;;;;;;;1.95;0.40;;;;;;;;;;4993486;28;20400;-76
2021/05/22 13:25:09;;;;;;;0.47;0.20;;;;;;;;;;4978828;28;20042;-80
2021/05/22 13:27:36;;;;;;;0.95;0.30;;;;;;;;;;4993892;28;20122;-78
2021/05/22 13:30:08;;;;;;;1.58;0.40;;;;;;;;;;4993520;28;20062;-79
2021/05/22 13:32:35;;;;;;;1.48;0.40;;;;;;;;;;4977923;28;20034;-79
2021/05/22 13:35:02;;;;;;;3.20;0.45;;;;;;;;;;4992570;28;20027;-80
2021/05/22 13:37:28;;;;;;;2.55;0.43;;;;;;;;;;4993614;28;20067;-79
2021/05/22 13:39:55;;;;;;;0.70;0.20;;;;;;;;;;4978501;28;20388;-80
2021/05/22 13:42:21;;;;;;;1.15;0.30;;;;;;;;;;4977769;28;20027;-81
2021/05/22 13:44:47;;;;;;;1.23;0.20;;;;;;;;;;4978298;28;20031;-79
2021/05/22 13:47:14;;;;;;;2.45;0.40;;;;;;;;;;4978381;28;20027;-80
2021/05/22 13:49:40;;;;;;;1.63;0.30;;;;;;;;;;4978476;28;20019;-78
2021/05/22 13:52:06;;;;;;;1.25;0.30;;;;;;;;;;4993829;28;20121;-78
2021/05/22 13:54:32;;;;;;;2.20;0.47;;;;;;;;;;4978479;28;20054;-80
2021/05/22 13:56:59;;;;;;;1.60;0.50;;;;;;;;;;4977385;28;20088;-80
2021/05/22 13:59:25;;;;;;;1.60;0.43;;;;;;;;;;4978120;28;20098;-80
2021/05/22 14:01:52;;;;;;;2.38;0.40;;;;;;;;;;4977992;28;20034;-80
2021/05/22 14:04:18;;;;;;;1.75;0.40;;;;;;;;;;4978549;28;20027;-80
2021/05/22 14:06:44;;;;;;;3.63;0.57;;;;;;;;;;4992559;28;20105;-79
2021/05/22 14:09:10;;;;;;;1.75;0.43;;;;;;;;;;4977876;28;20027;-80
2021/05/22 14:11:38;;;;;;;1.27;0.30;;;;;;;;;;4991586;28;20475;-81
2021/05/22 14:14:04;;;;;;;2.45;0.75;;;;;;;;;;4992414;28;20086;-79
2021/05/22 14:16:30;;;;;;;2.67;0.47;;;;;;;;;;4978062;28;20026;-80
2021/05/22 14:18:57;;;;;;;0.85;0.28;;;;;;;;;;4977356;28;20067;-79
2021/05/22 14:21:23;;;;;;;0.65;0.22;;;;;;;;;;4977356;28;20049;-79
2021/05/22 14:23:49;;;;;;;2.10;0.50;;;;;;;;;;4991811;28;20023;-78
2021/05/22 14:26:16;;;;;;;3.42;0.43;;;;;;;;;;4975948;28;20027;-78
2021/05/22 14:28:45;;;;;;;2.78;0.43;;;;;;;;;;4977557;28;20023;-77
2021/05/22 14:31:12;;;;;;;0.82;0.28;;;;;;;;;;4992583;28;20040;-81
2021/05/22 14:33:39;;;;;;;12.93;0.57;;;;;;;;;;4992366;28;20109;-79
2021/05/22 14:36:05;;;;;;;1.88;0.50;;;;;;;;;;4977290;28;20427;-79
2021/05/22 14:38:32;;;;;;;3.17;0.45;;;;;;;;;;4992260;28;20077;-78
2021/05/22 14:40:59;;;;;;;2.58;0.60;;;;;;;;;;4976488;28;20141;-81
2021/05/22 14:43:25;;;;;;;2.65;0.52;;;;;;;;;;4975130;28;20023;-78
2021/05/22 14:45:51;;;;;;;3.35;0.60;;;;;;;;;;4989547;28;20038;-78
2021/05/22 14:48:18;;;;;;;2.22;0.50;;;;;;;;;;4991807;28;20062;-77
2021/05/22 14:50:44;;;;;;;1.65;0.32;;;;;;;;;;4977515;28;20041;-78